Saga Sapphire — 9HOF8 — position and weather

sailwx.info

Track history (hours):
 
Tides and Currents Weather Stations Pressure Air Temp Water Temp Dewpoint Dewpoint Depression Visibility Wind Speed Wind Dir Waves Ship Positions

Saga Sapphire

Last reported at 2017-Jun-21 21:00 UTC. Time now 2017-Jun-23 20:37 UTC.
Position N 63°54' W 010°12'.

Length 200 m; draft 8.6 m.

Type: Ship. MMSI: 256208000.

Wind from 120 at 20 knots

Barometer 997.3 mb
Air temperature 9.8 ° C
Visibility: greater than 1.1 NM
Dewpoint 9.2 ° C
Water temperature 14.0 ° C

Date/timePositionNaut miles runAvg speedWind from/ knotsBaromVisibWave heightAir tempDewpointWater temp
2017-Jun-21 21:00N 63°54' W 010°12'36813.3 120 / 20997.3 1.1 9.8 9.214.0
2017-Jun-20 17:17N 59°00' W 002°27'414.8
2017-Jun-20 17:00N 58°59' W 002°34'714.2
2017-Jun-20 16:30N 59°00' W 002°48'510.5
2017-Jun-20 16:00N 59°01' W 002°58'1 1.2
2017-Jun-20 15:29N 59°00' W 002°58'0 0.0
2017-Jun-20 14:59N 59°00' W 002°58'0 0.0
2017-Jun-20 14:29N 59°00' W 002°58'0 0.0
2017-Jun-20 13:29N 59°00' W 002°58'0 0.0
2017-Jun-20 12:59N 59°00' W 002°58'0 0.0
2017-Jun-20 12:29N 59°00' W 002°58'0 0.0
2017-Jun-20 11:59N 59°00' W 002°58'0 0.0
2017-Jun-20 11:29N 59°00' W 002°58'0 0.0
2017-Jun-20 10:59N 59°00' W 002°58'0 0.0
2017-Jun-20 10:29N 59°00' W 002°58'0 0.0
2017-Jun-20 09:59N 59°00' W 002°58'0 0.0
2017-Jun-20 09:29N 59°00' W 002°58'0 0.0
2017-Jun-20 08:59N 59°00' W 002°58'0 0.0
2017-Jun-20 08:29N 59°00' W 002°58'0 0.0
2017-Jun-20 07:59N 59°00' W 002°58'0 0.0
2017-Jun-20 07:29N 59°00' W 002°58'0 0.0
2017-Jun-20 07:00N 59°00' W 002°58'2 3.1
2017-Jun-20 06:30N 59°01' W 002°57'4 8.3
2017-Jun-20 06:00N 59°00' W 002°49'4 8.9
2017-Jun-20 05:30N 58°60' W 002°40'612.0
2017-Jun-20 05:00N 58°56' W 002°30'15113.7
2017-Jun-19 18:00N 56°48' E 000°00'8614.7 330 / 131019.410.8 13.011.415.0
2017-Jun-19 12:09N 55°25' E 000°40'414.8
2017-Jun-19 11:51N 55°21' E 000°42'514.7
2017-Jun-19 11:30N 55°16' E 000°44'714.7
2017-Jun-19 11:01N 55°09' E 000°47'814.7
2017-Jun-19 10:29N 55°01' E 000°51'914.6
2017-Jun-19 09:53N 54°53' E 000°54'714.7
2017-Jun-19 09:25N 54°46' E 000°58'614.8
2017-Jun-19 09:01N 54°40' E 001°00'814.9
2017-Jun-19 08:29N 54°34' E 001°08'4116.5
2017-Jun-19 06:00N 54°00' E 001°48'3613.9 180 / 201021.310.8 15.613.815.0
2017-Jun-19 03:24N 53°37' E 002°36'1813.0
2017-Jun-19 02:01N 53°20' E 002°44'014.9
2017-Jun-19 02:00N 53°20' E 002°44'714.4
2017-Jun-19 01:30N 53°13' E 002°44'5522.1
2017-Jun-18 23:00N 52°18' E 002°30'5 5.1 020 / 51022.8 5.4 18.014.116.0
2017-Jun-18 22:06N 52°21' E 002°36'116.2
2017-Jun-18 22:00N 52°19' E 002°35'816.3
2017-Jun-18 21:29N 52°11' E 002°31'816.4
2017-Jun-18 21:00N 52°04' E 002°27'816.4
2017-Jun-18 20:31N 51°56' E 002°24'816.3
2017-Jun-18 20:00N 51°48' E 002°18'815.9
2017-Jun-18 19:30N 51°43' E 002°09'815.8
2017-Jun-18 19:01N 51°38' E 001°60'815.9
2017-Jun-18 18:31N 51°32' E 001°51'815.5
2017-Jun-18 18:01N 51°25' E 001°46'2145.6
2017-Jun-18 18:00N 51°24' E 001°42'713.6 090 / 111021.910.8 20.314.217.0
2017-Jun-18 17:31N 51°17' E 001°41'714.5
2017-Jun-18 17:01N 51°11' E 001°36'713.6
2017-Jun-18 16:30N 51°07' E 001°27'5 9.0
2017-Jun-18 15:59N 51°07' E 001°19'0 0.3
2017-Jun-18 15:25N 51°07' E 001°19'0 0.0
2017-Jun-18 14:31N 51°07' E 001°19'0 0.0
2017-Jun-18 13:49N 51°07' E 001°19'0 0.0
2017-Jun-18 13:22N 51°07' E 001°19'0 0.0
2017-Jun-18 12:58N 51°07' E 001°19'0 0.0
2017-Jun-18 12:24N 51°07' E 001°19'0 0.0
2017-Jun-18 11:50N 51°07' E 001°19'0 0.0
2017-Jun-18 11:17N 51°07' E 001°19'0 0.0
2017-Jun-18 10:53N 51°07' E 001°19'0 0.0
2017-Jun-18 10:29N 51°07' E 001°19'0 0.0
2017-Jun-18 10:00N 51°07' E 001°19'0 0.0
2017-Jun-18 09:28N 51°07' E 001°19'0 0.0
2017-Jun-18 08:58N 51°07' E 001°19'0 0.0
2017-Jun-18 08:30N 51°07' E 001°19'0 0.0
2017-Jun-18 07:56N 51°07' E 001°19'0 0.0
2017-Jun-18 07:29N 51°07' E 001°19'0 0.0
2017-Jun-18 06:49N 51°07' E 001°19'0 0.8
2017-Jun-18 06:30N 51°07' E 001°19'4 7.2
2017-Jun-18 06:00N 51°07' E 001°25'4 7.7
2017-Jun-18 05:31N 51°04' E 001°23'612.4
2017-Jun-18 05:00N 50°60' E 001°15'713.0
2017-Jun-18 04:29N 50°56' E 001°06'712.9
2017-Jun-18 03:58N 50°52' E 000°58'612.7
2017-Jun-18 03:29N 50°48' E 000°50'612.8
2017-Jun-18 03:00N 50°45' E 000°42'713.1
2017-Jun-18 02:30N 50°41' E 000°33'713.4
2017-Jun-18 02:01N 50°39' E 000°23'714.5
2017-Jun-18 01:30N 50°38' E 000°12'714.6
2017-Jun-18 01:01N 50°37' E 000°01'714.5
2017-Jun-18 00:31N 50°35' W 000°11'714.3
2017-Jun-18 00:00N 50°34' W 000°22'714.0
2017-Jun-17 23:30N 50°33' W 000°33'714.0
2017-Jun-17 23:00N 50°32' W 000°43'913.9
2017-Jun-17 22:20N 50°31' W 000°58'413.5
2017-Jun-17 22:00N 50°30' W 001°05'613.0
2017-Jun-17 21:30N 50°29' W 001°15'612.4
2017-Jun-17 21:00N 50°28' W 001°25'612.0
2017-Jun-17 20:31N 50°27' W 001°34'612.0
2017-Jun-17 20:00N 50°26' W 001°43'611.2
2017-Jun-17 19:31N 50°26' W 001°52'510.8
2017-Jun-17 19:01N 50°26' W 002°00'510.5
2017-Jun-17 18:30N 50°28' W 002°08'510.4
2017-Jun-17 18:01N 50°31' W 002°15'510.9
2017-Jun-17 17:30N 50°34' W 002°22'2 4.9
2017-Jun-17 17:01N 50°34' W 002°26'0 0.4
2017-Jun-17 16:27N 50°34' W 002°26'0 0.0
2017-Jun-17 16:00N 50°34' W 002°26'0 0.0
2017-Jun-17 15:30N 50°34' W 002°26'0 0.0
2017-Jun-17 15:00N 50°34' W 002°26'0 0.0
2017-Jun-17 14:29N 50°34' W 002°26'0 0.0
2017-Jun-17 13:25N 50°34' W 002°26'0 0.0
2017-Jun-17 12:55N 50°34' W 002°26'0 0.0
2017-Jun-17 12:30N 50°34' W 002°26'0 0.0
2017-Jun-17 12:00N 50°34' W 002°26'0 0.0
2017-Jun-17 11:27N 50°34' W 002°26'0 0.0
2017-Jun-17 11:00N 50°34' W 002°26'0 0.0
2017-Jun-17 10:30N 50°34' W 002°26'0 0.0
2017-Jun-17 10:00N 50°34' W 002°26'0 0.0
2017-Jun-17 09:30N 50°34' W 002°26'0 0.0
2017-Jun-17 08:56N 50°34' W 002°26'0 0.0
2017-Jun-17 08:29N 50°34' W 002°26'0 0.0
2017-Jun-17 07:59N 50°34' W 002°26'0 0.0
2017-Jun-17 07:29N 50°34' W 002°26'0 0.0
2017-Jun-17 06:59N 50°34' W 002°26'0 0.0
2017-Jun-17 06:29N 50°34' W 002°26'0 0.0
2017-Jun-17 05:55N 50°34' W 002°26'0 0.0
2017-Jun-17 05:30N 50°34' W 002°26'0 0.0
2017-Jun-17 05:00N 50°34' W 002°26'0 0.0
2017-Jun-17 04:29N 50°34' W 002°26'0 0.0
2017-Jun-17 03:58N 50°34' W 002°26'0 0.0
2017-Jun-17 03:28N 50°34' W 002°26'0 0.0
2017-Jun-17 02:57N 50°34' W 002°26'0 0.0
2017-Jun-17 02:30N 50°34' W 002°26'0 0.0
2017-Jun-17 02:00N 50°34' W 002°26'0 0.0
2017-Jun-17 01:30N 50°34' W 002°26'0 0.0
2017-Jun-17 01:00N 50°34' W 002°26'0 0.0
2017-Jun-17 00:30N 50°34' W 002°26'0 0.0
2017-Jun-17 00:00N 50°34' W 002°26'0 0.0
2017-Jun-16 23:30N 50°34' W 002°26'0 0.0
2017-Jun-16 23:00N 50°34' W 002°26'0 0.0
2017-Jun-16 22:30N 50°34' W 002°26'0 0.0
2017-Jun-16 21:51N 50°34' W 002°26'0 0.0
2017-Jun-16 21:27N 50°34' W 002°26'0 0.0
2017-Jun-16 21:00N 50°34' W 002°26'0 0.0
2017-Jun-16 20:30N 50°34' W 002°26'0 0.0
2017-Jun-16 19:54N 50°34' W 002°26'0 0.0
2017-Jun-16 19:30N 50°34' W 002°26'0 0.0
2017-Jun-16 18:57N 50°34' W 002°26'0 0.0
2017-Jun-16 18:27N 50°34' W 002°26'0 0.0
2017-Jun-16 17:57N 50°34' W 002°26'0 0.0
2017-Jun-16 17:27N 50°34' W 002°26'0 0.0
2017-Jun-16 17:00N 50°34' W 002°26'0 0.1
2017-Jun-16 16:29N 50°34' W 002°26'4 3.3
2017-Jun-16 15:26N 50°31' W 002°25'612.5
2017-Jun-16 14:55N 50°27' W 002°32'613.8
2017-Jun-16 14:30N 50°24' W 002°41'1414.5
2017-Jun-16 13:31N 50°19' W 003°02'714.6
2017-Jun-16 13:00N 50°17' W 003°13'714.6
2017-Jun-16 12:30N 50°14' W 003°23'714.7
2017-Jun-16 12:00N 50°11' W 003°33'714.8
2017-Jun-16 11:30N 50°07' W 003°44'815.1
2017-Jun-16 11:00N 50°05' W 003°55'815.7
2017-Jun-16 10:30N 50°04' W 004°07'815.7
2017-Jun-16 10:00N 50°01' W 004°18'815.6
2017-Jun-16 09:30N 50°00' W 004°31'5813.5
2017-Jun-16 05:12N 50°07' W 006°00'6714.3
2017-Jun-16 00:32N 50°41' W 007°30'115.9
2017-Jun-16 00:30N 50°42' W 007°31'815.9
2017-Jun-16 00:00N 50°44' W 007°43'816.0
2017-Jun-15 23:30N 50°47' W 007°54'4216.3
2017-Jun-15 20:56N 51°01' W 008°57'716.4
2017-Jun-15 20:30N 51°04' W 009°07'816.4
2017-Jun-15 20:00N 51°07' W 009°19'816.6
2017-Jun-15 19:30N 51°09' W 009°32'816.6
2017-Jun-15 19:00N 51°12' W 009°45'815.4
2017-Jun-15 18:30N 51°18' W 009°51'816.2
2017-Jun-15 18:00N 51°26' W 009°54'815.5
2017-Jun-15 17:30N 51°34' W 009°54'713.8
2017-Jun-15 16:59N 51°38' W 009°44'612.7
2017-Jun-15 16:29N 51°41' W 009°35'4 7.6
2017-Jun-15 16:01N 51°44' W 009°32'0 0.1
2017-Jun-15 15:29N 51°44' W 009°32'0 0.1
2017-Jun-15 14:59N 51°44' W 009°32'0 0.0
2017-Jun-15 14:29N 51°44' W 009°32'0 0.0
2017-Jun-15 13:29N 51°44' W 009°32'0 0.0
2017-Jun-15 12:59N 51°44' W 009°32'0 0.1
2017-Jun-15 12:29N 51°44' W 009°32'0 0.1
2017-Jun-15 11:59N 51°44' W 009°32'0 0.0
2017-Jun-15 11:29N 51°44' W 009°32'0 0.1
2017-Jun-15 10:59N 51°44' W 009°32'0 0.1
2017-Jun-15 10:29N 51°44' W 009°32'0 0.0
2017-Jun-15 09:56N 51°44' W 009°32'0 0.0
2017-Jun-15 09:30N 51°44' W 009°32'0 0.0
2017-Jun-15 09:00N 51°44' W 009°32'0 0.0
2017-Jun-15 08:31N 51°44' W 009°32'0 0.0
2017-Jun-15 08:00N 51°44' W 009°32'0 0.0
2017-Jun-15 07:30N 51°44' W 009°32'0 0.0
2017-Jun-15 06:58N 51°44' W 009°32'0 0.0
2017-Jun-15 06:29N 51°44' W 009°32'0 0.2
2017-Jun-15 05:59N 51°44' W 009°32'3 5.5
2017-Jun-15 05:29N 51°41' W 009°34'510.2
2017-Jun-15 04:59N 51°39' W 009°41'811.4
2017-Jun-15 04:17N 51°35' W 009°52'412.0
2017-Jun-15 03:59N 51°33' W 009°58'611.0
2017-Jun-15 03:29N 51°28' W 010°01'612.7
2017-Jun-15 02:59N 51°23' W 009°56'612.4
2017-Jun-15 02:30N 51°18' W 009°51'611.5
2017-Jun-15 02:00N 51°12' W 009°55'611.4
2017-Jun-15 01:30N 51°09' W 010°02'611.4
2017-Jun-15 00:56N 51°06' W 010°11'6 8.4
2017-Jun-15 00:17N 51°07' W 010°20'2 8.7
2017-Jun-15 00:00N 51°09' W 010°21'4 8.8
2017-Jun-14 23:30N 51°13' W 010°24'7 9.0
2017-Jun-14 22:46N 51°19' W 010°29'3 9.0
2017-Jun-14 22:28N 51°22' W 010°31'5 9.0
2017-Jun-14 21:52N 51°26' W 010°35'3 8.5
2017-Jun-14 21:31N 51°29' W 010°35'43 7.9
2017-Jun-14 16:06N 52°12' W 010°32'1611.8
2017-Jun-14 14:45N 52°24' W 010°14'2912.6
2017-Jun-14 12:26N 52°44' W 009°40'612.7
2017-Jun-14 11:59N 52°50' W 009°36'612.6
2017-Jun-14 11:30N 52°55' W 009°32'610.9
2017-Jun-14 10:59N 53°00' W 009°28'510.7
2017-Jun-14 10:30N 53°03' W 009°36'612.6
2017-Jun-14 10:00N 53°05' W 009°45'812.4
2017-Jun-14 09:23N 53°08' W 009°57'512.0
2017-Jun-14 09:00N 53°09' W 010°05'6 9.5
2017-Jun-14 08:24N 53°13' W 010°12'4 9.2
2017-Jun-14 07:55N 53°16' W 010°17'4 9.2
2017-Jun-14 07:28N 53°19' W 010°22'4 9.0
2017-Jun-14 06:59N 53°22' W 010°28'5 9.1
2017-Jun-14 06:27N 53°25' W 010°34'4 9.2
2017-Jun-14 05:58N 53°28' W 010°39'12 8.5
2017-Jun-14 04:36N 53°39' W 010°44'310.2
2017-Jun-14 04:17N 53°43' W 010°44'410.7
2017-Jun-14 03:57N 53°46' W 010°45'710.6
2017-Jun-14 03:18N 53°53' W 010°45'5 9.9
2017-Jun-14 02:47N 53°58' W 010°45'6 9.5
2017-Jun-14 02:08N 54°04' W 010°45'9 9.4
2017-Jun-14 01:08N 54°14' W 010°44'110.2
2017-Jun-14 01:00N 54°15' W 010°44'710.3
2017-Jun-14 00:18N 54°22' W 010°43'310.2
2017-Jun-13 23:58N 54°24' W 010°38'511.0
2017-Jun-13 23:28N 54°24' W 010°29'911.0
2017-Jun-13 22:37N 54°24' W 010°13'511.0
2017-Jun-13 22:10N 54°24' W 010°04'210.6
2017-Jun-13 21:58N 54°24' W 010°00'611.0
2017-Jun-13 21:25N 54°24' W 009°50'912.1
2017-Jun-13 20:43N 54°22' W 009°36'412.9
2017-Jun-13 20:24N 54°21' W 009°30'1212.5
2017-Jun-13 19:29N 54°22' W 009°10'612.7
2017-Jun-13 19:00N 54°25' W 009°01'812.6
2017-Jun-13 18:23N 54°29' W 008°49'512.5
2017-Jun-13 18:00N 54°31' W 008°42'712.5
2017-Jun-13 17:27N 54°35' W 008°32'4 8.7
2017-Jun-13 17:00N 54°37' W 008°26'0 1.0
2017-Jun-13 16:30N 54°38' W 008°26'0 0.0
2017-Jun-13 16:00N 54°38' W 008°26'0 0.0
2017-Jun-13 15:30N 54°38' W 008°26'0 0.0
2017-Jun-13 10:03N 54°38' W 008°26'0 0.0
2017-Jun-13 10:00N 54°38' W 008°26'0 0.0
2017-Jun-13 09:30N 54°38' W 008°26'0 0.0
2017-Jun-13 09:00N 54°38' W 008°26'0 0.0
2017-Jun-13 08:30N 54°38' W 008°26'0 0.0
2017-Jun-13 08:00N 54°38' W 008°26'0 0.0
2017-Jun-13 07:24N 54°38' W 008°26'1 2.9
2017-Jun-13 07:00N 54°37' W 008°27'5 9.1
2017-Jun-13 06:28N 54°35' W 008°34'2511.4
2017-Jun-13 04:16N 54°59' W 008°44'414.9
2017-Jun-13 03:59N 55°03' W 008°41'914.9
2017-Jun-13 03:23N 55°10' W 008°32'1613.9
2017-Jun-13 02:12N 55°23' W 008°15'514.2
2017-Jun-13 01:53N 55°24' W 008°07'514.5
2017-Jun-13 01:30N 55°25' W 007°58'914.6
2017-Jun-13 00:55N 55°27' W 007°43'614.5
2017-Jun-13 00:29N 55°29' W 007°33'714.3
2017-Jun-12 23:59N 55°30' W 007°20'613.1
2017-Jun-12 23:30N 55°31' W 007°09'612.4
2017-Jun-12 23:00N 55°30' W 006°58'612.1
2017-Jun-12 22:30N 55°29' W 006°48'612.3
2017-Jun-12 22:00N 55°28' W 006°37'612.2
2017-Jun-12 21:30N 55°27' W 006°26'612.8
2017-Jun-12 21:00N 55°26' W 006°15'612.7
2017-Jun-12 20:30N 55°25' W 006°04'612.1
2017-Jun-12 20:01N 55°21' W 005°57'712.8
2017-Jun-12 19:30N 55°15' W 005°50'713.3
2017-Jun-12 19:00N 55°09' W 005°47'714.0
2017-Jun-12 18:30N 55°03' W 005°41'714.4
2017-Jun-12 18:01N 54°56' W 005°37'714.3
2017-Jun-12 17:31N 54°49' W 005°36'713.1
2017-Jun-12 17:00N 54°43' W 005°41'510.2
2017-Jun-12 16:30N 54°41' W 005°49'4 8.9
2017-Jun-12 16:00N 54°37' W 005°54'0 0.1
2017-Jun-12 15:08N 54°37' W 005°54'0 0.0
2017-Jun-12 14:11N 54°37' W 005°54'0 0.0
2017-Jun-12 13:22N 54°37' W 005°54'0 0.0
2017-Jun-12 12:31N 54°37' W 005°54'0 0.2
2017-Jun-12 12:28N 54°37' W 005°54'0 0.0
2017-Jun-12 11:13N 54°37' W 005°54'0 0.0
2017-Jun-12 10:55N 54°37' W 005°54'0 0.0
2017-Jun-12 10:28N 54°37' W 005°54'0 0.0
2017-Jun-12 09:31N 54°37' W 005°54'0 0.0
2017-Jun-12 09:28N 54°37' W 005°54'0 0.0
2017-Jun-12 07:07N 54°37' W 005°54'0 0.0
2017-Jun-12 06:55N 54°37' W 005°54'1 1.6
2017-Jun-12 06:30N 54°38' W 005°53'2 5.0
2017-Jun-12 06:00N 54°40' W 005°51'5 9.2
2017-Jun-12 05:30N 54°42' W 005°44'5 9.1
2017-Jun-12 05:00N 54°43' W 005°37'612.1
2017-Jun-12 04:30N 54°43' W 005°26'612.1
2017-Jun-12 04:00N 54°39' W 005°18'713.4
2017-Jun-12 03:30N 54°33' W 005°15'714.1
2017-Jun-12 03:00N 54°26' W 005°12'713.8
2017-Jun-12 02:30N 54°19' W 005°15'713.9
2017-Jun-12 02:01N 54°13' W 005°20'713.7
2017-Jun-12 01:30N 54°07' W 005°25'1312.8
2017-Jun-12 00:32N 53°55' W 005°34'112.3
2017-Jun-12 00:29N 53°55' W 005°35'2212.5
2017-Jun-11 22:43N 53°34' W 005°48'413.0
2017-Jun-11 22:24N 53°30' W 005°50'513.2
2017-Jun-11 22:01N 53°25' W 005°53'611.9
2017-Jun-11 21:30N 53°21' W 006°00'5 9.6
2017-Jun-11 21:01N 53°21' W 006°08'  
Track history (hours):
 
Tides and Currents Weather Stations Pressure Air Temp Water Temp Dewpoint Dewpoint Depression Visibility Wind Speed Wind Dir Waves Ship Positions

Saga Sapphire

Last reported at 2017-Jun-21 21:00 UTC. Time now 2017-Jun-23 20:37 UTC.
Position N 63°54' W 010°12'.

Length 200 m; draft 8.6 m.

Type: Ship. MMSI: 256208000.

Wind from 120 at 20 knots

Barometer 997.3 mb
Air temperature 9.8 ° C
Visibility: greater than 1.1 NM
Dewpoint 9.2 ° C
Water temperature 14.0 ° C

Date/timePositionNaut miles runAvg speedWind from/ knotsBaromVisibWave heightAir tempDewpointWater temp
2017-Jun-21 21:00N 63°54' W 010°12'36813.3 120 / 20997.3 1.1 9.8 9.214.0
2017-Jun-20 17:17N 59°00' W 002°27'414.8
2017-Jun-20 17:00N 58°59' W 002°34'714.2
2017-Jun-20 16:30N 59°00' W 002°48'510.5
2017-Jun-20 16:00N 59°01' W 002°58'1 1.2
2017-Jun-20 15:29N 59°00' W 002°58'0 0.0
2017-Jun-20 14:59N 59°00' W 002°58'0 0.0
2017-Jun-20 14:29N 59°00' W 002°58'0 0.0
2017-Jun-20 13:29N 59°00' W 002°58'0 0.0
2017-Jun-20 12:59N 59°00' W 002°58'0 0.0
2017-Jun-20 12:29N 59°00' W 002°58'0 0.0
2017-Jun-20 11:59N 59°00' W 002°58'0 0.0
2017-Jun-20 11:29N 59°00' W 002°58'0 0.0
2017-Jun-20 10:59N 59°00' W 002°58'0 0.0
2017-Jun-20 10:29N 59°00' W 002°58'0 0.0
2017-Jun-20 09:59N 59°00' W 002°58'0 0.0
2017-Jun-20 09:29N 59°00' W 002°58'0 0.0
2017-Jun-20 08:59N 59°00' W 002°58'0 0.0
2017-Jun-20 08:29N 59°00' W 002°58'0 0.0
2017-Jun-20 07:59N 59°00' W 002°58'0 0.0
2017-Jun-20 07:29N 59°00' W 002°58'0 0.0
2017-Jun-20 07:00N 59°00' W 002°58'2 3.1
2017-Jun-20 06:30N 59°01' W 002°57'4 8.3
2017-Jun-20 06:00N 59°00' W 002°49'4 8.9
2017-Jun-20 05:30N 58°60' W 002°40'612.0
2017-Jun-20 05:00N 58°56' W 002°30'15113.7
2017-Jun-19 18:00N 56°48' E 000°00'8614.7 330 / 131019.410.8 13.011.415.0
2017-Jun-19 12:09N 55°25' E 000°40'414.8
2017-Jun-19 11:51N 55°21' E 000°42'514.7
2017-Jun-19 11:30N 55°16' E 000°44'714.7
2017-Jun-19 11:01N 55°09' E 000°47'814.7
2017-Jun-19 10:29N 55°01' E 000°51'914.6
2017-Jun-19 09:53N 54°53' E 000°54'714.7
2017-Jun-19 09:25N 54°46' E 000°58'614.8
2017-Jun-19 09:01N 54°40' E 001°00'814.9
2017-Jun-19 08:29N 54°34' E 001°08'4116.5
2017-Jun-19 06:00N 54°00' E 001°48'3613.9 180 / 201021.310.8 15.613.815.0
2017-Jun-19 03:24N 53°37' E 002°36'1813.0
2017-Jun-19 02:01N 53°20' E 002°44'014.9
2017-Jun-19 02:00N 53°20' E 002°44'714.4
2017-Jun-19 01:30N 53°13' E 002°44'5522.1
2017-Jun-18 23:00N 52°18' E 002°30'5 5.1 020 / 51022.8 5.4 18.014.116.0
2017-Jun-18 22:06N 52°21' E 002°36'116.2
2017-Jun-18 22:00N 52°19' E 002°35'816.3
2017-Jun-18 21:29N 52°11' E 002°31'816.4
2017-Jun-18 21:00N 52°04' E 002°27'816.4
2017-Jun-18 20:31N 51°56' E 002°24'816.3
2017-Jun-18 20:00N 51°48' E 002°18'815.9
2017-Jun-18 19:30N 51°43' E 002°09'815.8
2017-Jun-18 19:01N 51°38' E 001°60'815.9
2017-Jun-18 18:31N 51°32' E 001°51'815.5
2017-Jun-18 18:01N 51°25' E 001°46'2145.6
2017-Jun-18 18:00N 51°24' E 001°42'713.6 090 / 111021.910.8 20.314.217.0
2017-Jun-18 17:31N 51°17' E 001°41'714.5
2017-Jun-18 17:01N 51°11' E 001°36'713.6
2017-Jun-18 16:30N 51°07' E 001°27'5 9.0
2017-Jun-18 15:59N 51°07' E 001°19'0 0.3
2017-Jun-18 15:25N 51°07' E 001°19'0 0.0
2017-Jun-18 14:31N 51°07' E 001°19'0 0.0
2017-Jun-18 13:49N 51°07' E 001°19'0 0.0
2017-Jun-18 13:22N 51°07' E 001°19'0 0.0
2017-Jun-18 12:58N 51°07' E 001°19'0 0.0
2017-Jun-18 12:24N 51°07' E 001°19'0 0.0
2017-Jun-18 11:50N 51°07' E 001°19'0 0.0
2017-Jun-18 11:17N 51°07' E 001°19'0 0.0
2017-Jun-18 10:53N 51°07' E 001°19'0 0.0
2017-Jun-18 10:29N 51°07' E 001°19'0 0.0
2017-Jun-18 10:00N 51°07' E 001°19'0 0.0
2017-Jun-18 09:28N 51°07' E 001°19'0 0.0
2017-Jun-18 08:58N 51°07' E 001°19'0 0.0
2017-Jun-18 08:30N 51°07' E 001°19'0 0.0
2017-Jun-18 07:56N 51°07' E 001°19'0 0.0
2017-Jun-18 07:29N 51°07' E 001°19'0 0.0
2017-Jun-18 06:49N 51°07' E 001°19'0 0.8
2017-Jun-18 06:30N 51°07' E 001°19'4 7.2
2017-Jun-18 06:00N 51°07' E 001°25'4 7.7
2017-Jun-18 05:31N 51°04' E 001°23'612.4
2017-Jun-18 05:00N 50°60' E 001°15'713.0
2017-Jun-18 04:29N 50°56' E 001°06'712.9
2017-Jun-18 03:58N 50°52' E 000°58'612.7
2017-Jun-18 03:29N 50°48' E 000°50'612.8
2017-Jun-18 03:00N 50°45' E 000°42'713.1
2017-Jun-18 02:30N 50°41' E 000°33'713.4
2017-Jun-18 02:01N 50°39' E 000°23'714.5
2017-Jun-18 01:30N 50°38' E 000°12'714.6
2017-Jun-18 01:01N 50°37' E 000°01'714.5
2017-Jun-18 00:31N 50°35' W 000°11'714.3
2017-Jun-18 00:00N 50°34' W 000°22'714.0
2017-Jun-17 23:30N 50°33' W 000°33'714.0
2017-Jun-17 23:00N 50°32' W 000°43'913.9
2017-Jun-17 22:20N 50°31' W 000°58'413.5
2017-Jun-17 22:00N 50°30' W 001°05'613.0
2017-Jun-17 21:30N 50°29' W 001°15'612.4
2017-Jun-17 21:00N 50°28' W 001°25'612.0
2017-Jun-17 20:31N 50°27' W 001°34'612.0
2017-Jun-17 20:00N 50°26' W 001°43'611.2
2017-Jun-17 19:31N 50°26' W 001°52'510.8
2017-Jun-17 19:01N 50°26' W 002°00'510.5
2017-Jun-17 18:30N 50°28' W 002°08'510.4
2017-Jun-17 18:01N 50°31' W 002°15'510.9
2017-Jun-17 17:30N 50°34' W 002°22'2 4.9
2017-Jun-17 17:01N 50°34' W 002°26'0 0.4
2017-Jun-17 16:27N 50°34' W 002°26'0 0.0
2017-Jun-17 16:00N 50°34' W 002°26'0 0.0
2017-Jun-17 15:30N 50°34' W 002°26'0 0.0
2017-Jun-17 15:00N 50°34' W 002°26'0 0.0
2017-Jun-17 14:29N 50°34' W 002°26'0 0.0
2017-Jun-17 13:25N 50°34' W 002°26'0 0.0
2017-Jun-17 12:55N 50°34' W 002°26'0 0.0
2017-Jun-17 12:30N 50°34' W 002°26'0 0.0
2017-Jun-17 12:00N 50°34' W 002°26'0 0.0
2017-Jun-17 11:27N 50°34' W 002°26'0 0.0
2017-Jun-17 11:00N 50°34' W 002°26'0 0.0
2017-Jun-17 10:30N 50°34' W 002°26'0 0.0
2017-Jun-17 10:00N 50°34' W 002°26'0 0.0
2017-Jun-17 09:30N 50°34' W 002°26'0 0.0
2017-Jun-17 08:56N 50°34' W 002°26'0 0.0
2017-Jun-17 08:29N 50°34' W 002°26'0 0.0
2017-Jun-17 07:59N 50°34' W 002°26'0 0.0
2017-Jun-17 07:29N 50°34' W 002°26'0 0.0
2017-Jun-17 06:59N 50°34' W 002°26'0 0.0
2017-Jun-17 06:29N 50°34' W 002°26'0 0.0
2017-Jun-17 05:55N 50°34' W 002°26'0 0.0
2017-Jun-17 05:30N 50°34' W 002°26'0 0.0
2017-Jun-17 05:00N 50°34' W 002°26'0 0.0
2017-Jun-17 04:29N 50°34' W 002°26'0 0.0
2017-Jun-17 03:58N 50°34' W 002°26'0 0.0
2017-Jun-17 03:28N 50°34' W 002°26'0 0.0
2017-Jun-17 02:57N 50°34' W 002°26'0 0.0
2017-Jun-17 02:30N 50°34' W 002°26'0 0.0
2017-Jun-17 02:00N 50°34' W 002°26'0 0.0
2017-Jun-17 01:30N 50°34' W 002°26'0 0.0
2017-Jun-17 01:00N 50°34' W 002°26'0 0.0
2017-Jun-17 00:30N 50°34' W 002°26'0 0.0
2017-Jun-17 00:00N 50°34' W 002°26'0 0.0
2017-Jun-16 23:30N 50°34' W 002°26'0 0.0
2017-Jun-16 23:00N 50°34' W 002°26'0 0.0
2017-Jun-16 22:30N 50°34' W 002°26'0 0.0
2017-Jun-16 21:51N 50°34' W 002°26'0 0.0
2017-Jun-16 21:27N 50°34' W 002°26'0 0.0
2017-Jun-16 21:00N 50°34' W 002°26'0 0.0
2017-Jun-16 20:30N 50°34' W 002°26'0 0.0
2017-Jun-16 19:54N 50°34' W 002°26'0 0.0
2017-Jun-16 19:30N 50°34' W 002°26'0 0.0
2017-Jun-16 18:57N 50°34' W 002°26'0 0.0
2017-Jun-16 18:27N 50°34' W 002°26'0 0.0
2017-Jun-16 17:57N 50°34' W 002°26'0 0.0
2017-Jun-16 17:27N 50°34' W 002°26'0 0.0
2017-Jun-16 17:00N 50°34' W 002°26'0 0.1
2017-Jun-16 16:29N 50°34' W 002°26'4 3.3
2017-Jun-16 15:26N 50°31' W 002°25'612.5
2017-Jun-16 14:55N 50°27' W 002°32'613.8
2017-Jun-16 14:30N 50°24' W 002°41'1414.5
2017-Jun-16 13:31N 50°19' W 003°02'714.6
2017-Jun-16 13:00N 50°17' W 003°13'714.6
2017-Jun-16 12:30N 50°14' W 003°23'714.7
2017-Jun-16 12:00N 50°11' W 003°33'714.8
2017-Jun-16 11:30N 50°07' W 003°44'815.1
2017-Jun-16 11:00N 50°05' W 003°55'815.7
2017-Jun-16 10:30N 50°04' W 004°07'815.7
2017-Jun-16 10:00N 50°01' W 004°18'815.6
2017-Jun-16 09:30N 50°00' W 004°31'5813.5
2017-Jun-16 05:12N 50°07' W 006°00'6714.3
2017-Jun-16 00:32N 50°41' W 007°30'115.9
2017-Jun-16 00:30N 50°42' W 007°31'815.9
2017-Jun-16 00:00N 50°44' W 007°43'816.0
2017-Jun-15 23:30N 50°47' W 007°54'4216.3
2017-Jun-15 20:56N 51°01' W 008°57'716.4
2017-Jun-15 20:30N 51°04' W 009°07'816.4
2017-Jun-15 20:00N 51°07' W 009°19'816.6
2017-Jun-15 19:30N 51°09' W 009°32'816.6
2017-Jun-15 19:00N 51°12' W 009°45'815.4
2017-Jun-15 18:30N 51°18' W 009°51'816.2
2017-Jun-15 18:00N 51°26' W 009°54'815.5
2017-Jun-15 17:30N 51°34' W 009°54'713.8
2017-Jun-15 16:59N 51°38' W 009°44'612.7
2017-Jun-15 16:29N 51°41' W 009°35'4 7.6
2017-Jun-15 16:01N 51°44' W 009°32'0 0.1
2017-Jun-15 15:29N 51°44' W 009°32'0 0.1
2017-Jun-15 14:59N 51°44' W 009°32'0 0.0
2017-Jun-15 14:29N 51°44' W 009°32'0 0.0
2017-Jun-15 13:29N 51°44' W 009°32'0 0.0
2017-Jun-15 12:59N 51°44' W 009°32'0 0.1
2017-Jun-15 12:29N 51°44' W 009°32'0 0.1
2017-Jun-15 11:59N 51°44' W 009°32'0 0.0
2017-Jun-15 11:29N 51°44' W 009°32'0 0.1
2017-Jun-15 10:59N 51°44' W 009°32'0 0.1
2017-Jun-15 10:29N 51°44' W 009°32'0 0.0
2017-Jun-15 09:56N 51°44' W 009°32'0 0.0
2017-Jun-15 09:30N 51°44' W 009°32'0 0.0
2017-Jun-15 09:00N 51°44' W 009°32'0 0.0
2017-Jun-15 08:31N 51°44' W 009°32'0 0.0
2017-Jun-15 08:00N 51°44' W 009°32'0 0.0
2017-Jun-15 07:30N 51°44' W 009°32'0 0.0
2017-Jun-15 06:58N 51°44' W 009°32'0 0.0
2017-Jun-15 06:29N 51°44' W 009°32'0 0.2
2017-Jun-15 05:59N 51°44' W 009°32'3 5.5
2017-Jun-15 05:29N 51°41' W 009°34'510.2
2017-Jun-15 04:59N 51°39' W 009°41'811.4
2017-Jun-15 04:17N 51°35' W 009°52'412.0
2017-Jun-15 03:59N 51°33' W 009°58'611.0
2017-Jun-15 03:29N 51°28' W 010°01'612.7
2017-Jun-15 02:59N 51°23' W 009°56'612.4
2017-Jun-15 02:30N 51°18' W 009°51'611.5
2017-Jun-15 02:00N 51°12' W 009°55'611.4
2017-Jun-15 01:30N 51°09' W 010°02'611.4
2017-Jun-15 00:56N 51°06' W 010°11'6 8.4
2017-Jun-15 00:17N 51°07' W 010°20'2 8.7
2017-Jun-15 00:00N 51°09' W 010°21'4 8.8
2017-Jun-14 23:30N 51°13' W 010°24'7 9.0
2017-Jun-14 22:46N 51°19' W 010°29'3 9.0
2017-Jun-14 22:28N 51°22' W 010°31'5 9.0
2017-Jun-14 21:52N 51°26' W 010°35'3 8.5
2017-Jun-14 21:31N 51°29' W 010°35'43 7.9
2017-Jun-14 16:06N 52°12' W 010°32'1611.8
2017-Jun-14 14:45N 52°24' W 010°14'2912.6
2017-Jun-14 12:26N 52°44' W 009°40'612.7
2017-Jun-14 11:59N 52°50' W 009°36'612.6
2017-Jun-14 11:30N 52°55' W 009°32'610.9
2017-Jun-14 10:59N 53°00' W 009°28'510.7
2017-Jun-14 10:30N 53°03' W 009°36'612.6
2017-Jun-14 10:00N 53°05' W 009°45'812.4
2017-Jun-14 09:23N 53°08' W 009°57'512.0
2017-Jun-14 09:00N 53°09' W 010°05'6 9.5
2017-Jun-14 08:24N 53°13' W 010°12'4 9.2
2017-Jun-14 07:55N 53°16' W 010°17'4 9.2
2017-Jun-14 07:28N 53°19' W 010°22'4 9.0
2017-Jun-14 06:59N 53°22' W 010°28'5 9.1
2017-Jun-14 06:27N 53°25' W 010°34'4 9.2
2017-Jun-14 05:58N 53°28' W 010°39'12 8.5
2017-Jun-14 04:36N 53°39' W 010°44'310.2
2017-Jun-14 04:17N 53°43' W 010°44'410.7
2017-Jun-14 03:57N 53°46' W 010°45'710.6
2017-Jun-14 03:18N 53°53' W 010°45'5 9.9
2017-Jun-14 02:47N 53°58' W 010°45'6 9.5
2017-Jun-14 02:08N 54°04' W 010°45'9 9.4
2017-Jun-14 01:08N 54°14' W 010°44'110.2
2017-Jun-14 01:00N 54°15' W 010°44'710.3
2017-Jun-14 00:18N 54°22' W 010°43'310.2
2017-Jun-13 23:58N 54°24' W 010°38'511.0
2017-Jun-13 23:28N 54°24' W 010°29'911.0
2017-Jun-13 22:37N 54°24' W 010°13'511.0
2017-Jun-13 22:10N 54°24' W 010°04'210.6
2017-Jun-13 21:58N 54°24' W 010°00'611.0
2017-Jun-13 21:25N 54°24' W 009°50'912.1
2017-Jun-13 20:43N 54°22' W 009°36'412.9
2017-Jun-13 20:24N 54°21' W 009°30'1212.5
2017-Jun-13 19:29N 54°22' W 009°10'612.7
2017-Jun-13 19:00N 54°25' W 009°01'812.6
2017-Jun-13 18:23N 54°29' W 008°49'512.5
2017-Jun-13 18:00N 54°31' W 008°42'712.5
2017-Jun-13 17:27N 54°35' W 008°32'4 8.7
2017-Jun-13 17:00N 54°37' W 008°26'0 1.0
2017-Jun-13 16:30N 54°38' W 008°26'0 0.0
2017-Jun-13 16:00N 54°38' W 008°26'0 0.0
2017-Jun-13 15:30N 54°38' W 008°26'0 0.0
2017-Jun-13 10:03N 54°38' W 008°26'0 0.0
2017-Jun-13 10:00N 54°38' W 008°26'0 0.0
2017-Jun-13 09:30N 54°38' W 008°26'0 0.0
2017-Jun-13 09:00N 54°38' W 008°26'0 0.0
2017-Jun-13 08:30N 54°38' W 008°26'0 0.0
2017-Jun-13 08:00N 54°38' W 008°26'0 0.0
2017-Jun-13 07:24N 54°38' W 008°26'1 2.9
2017-Jun-13 07:00N 54°37' W 008°27'5 9.1
2017-Jun-13 06:28N 54°35' W 008°34'2511.4
2017-Jun-13 04:16N 54°59' W 008°44'414.9
2017-Jun-13 03:59N 55°03' W 008°41'914.9
2017-Jun-13 03:23N 55°10' W 008°32'1613.9
2017-Jun-13 02:12N 55°23' W 008°15'514.2
2017-Jun-13 01:53N 55°24' W 008°07'514.5
2017-Jun-13 01:30N 55°25' W 007°58'914.6
2017-Jun-13 00:55N 55°27' W 007°43'614.5
2017-Jun-13 00:29N 55°29' W 007°33'714.3
2017-Jun-12 23:59N 55°30' W 007°20'613.1
2017-Jun-12 23:30N 55°31' W 007°09'612.4
2017-Jun-12 23:00N 55°30' W 006°58'612.1
2017-Jun-12 22:30N 55°29' W 006°48'612.3
2017-Jun-12 22:00N 55°28' W 006°37'612.2
2017-Jun-12 21:30N 55°27' W 006°26'612.8
2017-Jun-12 21:00N 55°26' W 006°15'612.7
2017-Jun-12 20:30N 55°25' W 006°04'612.1
2017-Jun-12 20:01N 55°21' W 005°57'712.8
2017-Jun-12 19:30N 55°15' W 005°50'713.3
2017-Jun-12 19:00N 55°09' W 005°47'714.0
2017-Jun-12 18:30N 55°03' W 005°41'714.4
2017-Jun-12 18:01N 54°56' W 005°37'714.3
2017-Jun-12 17:31N 54°49' W 005°36'713.1
2017-Jun-12 17:00N 54°43' W 005°41'510.2
2017-Jun-12 16:30N 54°41' W 005°49'4 8.9
2017-Jun-12 16:00N 54°37' W 005°54'0 0.1
2017-Jun-12 15:08N 54°37' W 005°54'0 0.0
2017-Jun-12 14:11N 54°37' W 005°54'0 0.0
2017-Jun-12 13:22N 54°37' W 005°54'0 0.0
2017-Jun-12 12:31N 54°37' W 005°54'0 0.2
2017-Jun-12 12:28N 54°37' W 005°54'0 0.0
2017-Jun-12 11:13N 54°37' W 005°54'0 0.0
2017-Jun-12 10:55N 54°37' W 005°54'0 0.0
2017-Jun-12 10:28N 54°37' W 005°54'0 0.0
2017-Jun-12 09:31N 54°37' W 005°54'0 0.0
2017-Jun-12 09:28N 54°37' W 005°54'0 0.0
2017-Jun-12 07:07N 54°37' W 005°54'0 0.0
2017-Jun-12 06:55N 54°37' W 005°54'1 1.6
2017-Jun-12 06:30N 54°38' W 005°53'2 5.0
2017-Jun-12 06:00N 54°40' W 005°51'5 9.2
2017-Jun-12 05:30N 54°42' W 005°44'5 9.1
2017-Jun-12 05:00N 54°43' W 005°37'612.1
2017-Jun-12 04:30N 54°43' W 005°26'612.1
2017-Jun-12 04:00N 54°39' W 005°18'713.4
2017-Jun-12 03:30N 54°33' W 005°15'714.1
2017-Jun-12 03:00N 54°26' W 005°12'713.8
2017-Jun-12 02:30N 54°19' W 005°15'713.9
2017-Jun-12 02:01N 54°13' W 005°20'713.7
2017-Jun-12 01:30N 54°07' W 005°25'1312.8
2017-Jun-12 00:32N 53°55' W 005°34'112.3
2017-Jun-12 00:29N 53°55' W 005°35'2212.5
2017-Jun-11 22:43N 53°34' W 005°48'413.0
2017-Jun-11 22:24N 53°30' W 005°50'513.2
2017-Jun-11 22:01N 53°25' W 005°53'611.9
2017-Jun-11 21:30N 53°21' W 006°00'5 9.6
2017-Jun-11 21:01N 53°21' W 006°08'  

Dump ship's entire track history